createdAt,value
2022-12-01T05:03:15.276Z,39.35
2022-12-01T05:07:18.439Z,44.53
2022-12-01T05:11:21.379Z,38.63
2022-12-01T05:15:24.249Z,39.65
2022-12-01T05:19:46.176Z,40.60
2022-12-01T05:23:49.039Z,42.92
2022-12-01T05:27:51.747Z,39.00
2022-12-01T05:31:54.621Z,38.33
2022-12-01T05:35:58.973Z,39.72
2022-12-01T05:40:01.971Z,35.92
2022-12-01T05:44:04.959Z,40.50
2022-12-01T05:52:52.028Z,35.97
2022-12-01T05:56:54.795Z,40.55
2022-12-01T06:00:57.574Z,34.33
2022-12-01T06:05:00.353Z,41.83
2022-12-01T06:09:04.940Z,41.77
2022-12-01T06:13:07.767Z,38.92
2022-12-01T06:17:10.658Z,38.38
2022-12-01T06:21:13.453Z,34.75
2022-12-01T06:25:17.787Z,34.23
2022-12-01T06:29:20.645Z,38.42
2022-12-01T06:33:23.405Z,41.50
2022-12-01T06:37:26.266Z,38.47
2022-12-01T06:41:30.396Z,38.40
2022-12-01T06:45:33.360Z,39.47
2022-12-01T06:49:36.234Z,39.00
2022-12-01T06:53:39.031Z,36.05
2022-12-01T06:57:44.023Z,38.08
2022-12-01T07:01:47.449Z,40.15
2022-12-01T07:05:58.465Z,39.15
2022-12-01T07:10:01.269Z,38.28
2022-12-01T07:14:05.448Z,37.95
2022-12-01T07:18:08.178Z,41.38
2022-12-01T07:22:11.333Z,41.37
2022-12-01T07:26:16.275Z,41.42
2022-12-01T07:30:25.419Z,43.15
2022-12-01T07:34:30.957Z,46.25
2022-12-01T07:38:35.051Z,47.78
2022-12-01T07:42:37.848Z,44.92
2022-12-01T07:46:42.063Z,45.00
2022-12-01T07:50:44.943Z,40.80
2022-12-01T07:54:47.767Z,43.47
2022-12-01T07:58:50.554Z,47.15
2022-12-01T08:02:54.807Z,46.88
2022-12-01T08:06:57.680Z,44.80
2022-12-01T13:30:27.311Z,34.65
2022-12-01T13:34:36.780Z,37.47
2022-12-01T13:38:40.427Z,28.55
2022-12-01T13:42:44.039Z,32.05
2022-12-01T13:46:59.807Z,34.03
2022-12-01T13:51:02.921Z,32.72
2022-12-01T13:55:30.019Z,33.08
2022-12-01T14:00:00.353Z,32.35
2022-12-01T14:04:25.037Z,33.58
2022-12-01T14:08:30.551Z,32.13
2022-12-01T14:12:37.688Z,30.10
2022-12-01T14:16:48.651Z,30.55
2022-12-01T14:20:53.132Z,30.10
2022-12-01T14:24:57.474Z,30.63
2022-12-01T14:29:28.424Z,27.05
2022-12-01T14:33:52.066Z,25.42
2022-12-01T14:37:58.684Z,30.45
2022-12-01T14:42:03.958Z,27.75
2022-12-01T14:46:09.581Z,28.38
2022-12-01T14:50:17.579Z,26.63
2022-12-01T14:54:27.562Z,30.92
2022-12-01T14:58:32.525Z,27.70
2022-12-01T15:02:40.188Z,29.10
2022-12-01T15:06:44.869Z,35.92
2022-12-01T15:14:55.848Z,31.55
2022-12-01T15:18:58.830Z,32.30
2022-12-01T15:23:03.310Z,34.97
2022-12-01T15:27:25.438Z,32.38
2022-12-01T15:31:28.137Z,33.40
2022-12-01T15:35:30.955Z,35.37
2022-12-01T15:39:36.029Z,31.60
2022-12-01T15:43:41.230Z,30.70
2022-12-01T15:47:47.116Z,35.80
2022-12-01T15:51:51.390Z,35.90
2022-12-01T15:55:59.022Z,33.05
2022-12-01T16:00:04.507Z,33.55
2022-12-01T16:04:19.319Z,37.50
2022-12-01T16:08:24.776Z,34.08
2022-12-01T16:12:28.677Z,31.02
2022-12-01T16:16:44.716Z,29.63
2022-12-01T16:20:47.418Z,33.03
2022-12-01T16:24:53.080Z,30.23
2022-12-01T16:28:56.661Z,33.03
2022-12-01T16:33:06.309Z,33.30
2022-12-01T16:37:11.760Z,37.63
2022-12-01T16:41:25.633Z,40.22
2022-12-01T16:45:28.352Z,35.70
2022-12-01T16:49:33.067Z,37.73
2022-12-01T16:53:35.715Z,36.97
2022-12-01T16:57:38.321Z,36.63
2022-12-01T17:01:40.955Z,37.87
2022-12-01T17:05:44.985Z,35.97
2022-12-01T17:09:47.671Z,38.10
2022-12-01T17:13:50.307Z,34.37
2022-12-01T17:17:53.005Z,34.60
2022-12-01T17:21:56.973Z,30.63
2022-12-01T17:26:00.448Z,31.75
2022-12-01T17:34:05.813Z,37.35
2022-12-01T17:38:10.063Z,34.27
2022-12-01T17:42:12.778Z,31.00
2022-12-01T17:46:15.851Z,32.20
2022-12-01T17:50:18.728Z,31.73
2022-12-01T17:54:23.437Z,29.10
2022-12-01T17:58:26.185Z,30.95
2022-12-01T18:02:29.168Z,27.02
2022-12-01T18:06:32.214Z,30.40
2022-12-01T18:10:36.538Z,36.63
2022-12-01T18:14:40.675Z,31.17
2022-12-01T18:18:43.952Z,29.88
2022-12-01T18:22:47.380Z,31.90
2022-12-01T18:34:56.750Z,31.05
2022-12-01T18:39:01.218Z,31.23
2022-12-01T18:43:05.805Z,32.58
2022-12-01T18:47:10.967Z,31.92
2022-12-01T18:51:13.830Z,30.02
2022-12-01T18:55:16.507Z,34.15
2022-12-01T18:59:20.585Z,29.70
2022-12-01T19:03:23.234Z,28.63
2022-12-01T19:07:29.738Z,32.33
2022-12-01T19:11:34.122Z,33.05
2022-12-01T19:15:38.538Z,36.45
2022-12-01T19:19:41.201Z,34.58
2022-12-01T19:23:44.574Z,37.03
2022-12-01T19:27:47.626Z,30.75
2022-12-01T19:31:51.986Z,30.70
2022-12-01T19:35:54.706Z,31.88
2022-12-01T19:39:57.353Z,33.23
2022-12-01T19:43:59.995Z,33.13
2022-12-01T19:48:04.017Z,29.83
2022-12-01T19:52:06.837Z,28.92
2022-12-01T19:56:10.594Z,33.75
2022-12-01T20:00:14.200Z,30.90
2022-12-01T20:04:18.286Z,34.15
2022-12-01T20:08:20.978Z,35.35
2022-12-01T20:12:23.678Z,35.90
2022-12-01T20:16:28.763Z,31.48
2022-12-01T20:20:32.763Z,31.58
2022-12-01T20:24:36.623Z,34.35
2022-12-01T20:28:40.466Z,28.25
2022-12-01T20:32:43.091Z,31.83
2022-12-01T20:36:48.771Z,32.92
2022-12-01T20:40:52.647Z,32.03
2022-12-01T20:44:55.349Z,36.22
2022-12-01T20:48:58.057Z,34.70
2022-12-01T20:53:02.061Z,32.97
2022-12-01T20:57:04.727Z,32.30
2022-12-01T21:01:09.747Z,40.77
2022-12-01T21:05:12.648Z,30.17
2022-12-01T21:09:16.679Z,38.20
2022-12-01T21:13:42.096Z,32.17
2022-12-01T21:17:50.922Z,31.38
2022-12-01T21:21:53.704Z,29.63
2022-12-01T21:25:58.191Z,30.10
2022-12-01T21:30:01.535Z,30.23
2022-12-01T21:34:11.074Z,32.60
2022-12-01T21:38:20.459Z,32.28
2022-12-01T21:42:27.908Z,37.83
2022-12-01T21:46:30.809Z,34.13
2022-12-01T21:50:33.680Z,31.88
2022-12-01T21:54:36.376Z,33.53
2022-12-01T21:58:40.383Z,31.27
